Estación Meteorológica Peña el Pijo (Robertgarden) [ 07/19/24 11:47:24 CEST ]

Fecha Hora Presion(HPa) Temp (°C) Humedad % Rocio (°C) Viento ( m/s) Direccion Lluvia 1Hora(mm) Lluvia 24H(mm) LLuvia Total(mm)
2012-Feb-05 01:01:12 1016.600 -2.8 53 -11.1         153.32
2012-Feb-05 02:01:50 1016.500 -3.6 54 -11.6         153.32
2012-Feb-05 03:10:07 1016.300 -3.6 56 -11.2         153.32
2012-Feb-05 04:01:49 1016.400 -3.6 56 -11.2         153.32
2012-Feb-05 05:01:45 1016.400 -4.6 59 -11.4         153.32
2012-Feb-05 06:01:43 1016.700 -6.4 65 -11.9         153.32
2012-Feb-05 07:01:15 1017.000 -3.6 64 -9.5         153.32
2012-Feb-05 08:01:23 1017.200 -5.2 64 -11.0         153.32
2012-Feb-05 09:01:12 1017.800 -5.8 70 -10.4         153.32
2012-Feb-05 10:01:14 1017.500 0.1 58 -7.2         153.32
2012-Feb-05 11:01:14 1017.700 1.8 51 -7.3         153.32
2012-Feb-05 12:01:19 1016.800 2.3 48 -7.6         153.32
2012-Feb-05 13:01:16 1015.000 4.7 47 -6.0         153.32
2012-Feb-05 14:01:14 1014.800 2.6 56 -5.3         153.32
2012-Feb-05 15:01:16 1013.200 1.1 68 -4.2         153.32
2012-Feb-05 16:01:16 1013.000 2.9 64 -3.3         153.32
2012-Feb-05 17:01:15 1013.000 2.3 67 -3.2         153.32
2012-Feb-05 18:01:16 1013.300 2.0 67 -3.5         153.32
2012-Feb-05 19:01:14 1013.400 1.2 73 -3.2         153.32
2012-Feb-05 20:01:13 1013.700 0.8 78 -2.6         153.32
2012-Feb-05 21:01:12 1014.800 0.4 83 -2.2         153.32
2012-Feb-05 22:01:14 1014.600 1.1 84 -1.4         153.32
2012-Feb-05 23:01:15 1015.200 2.5 74 -1.7         153.32

Temperatura Máxima:    Temperatura Mínima:-6°
Presión Máxima:1017.800 Hpa    Presión Mínima:1013.000 Hpa


Volver